Stoverdale, Pennsylvania
Current Conditions -  °F | °C
As of 11:56 PM on Thursday 27 Nov 2014 (Local Time) from KMDT Reporting Station
Broken Clouds Broken Clouds  
Wind Chill: 24°   Ceiling: 9000
Heat Index: 34°   Visibility: 10mi
Dew Point: 25°   Wind: 16mph
Humidity: 70%   Direction: 300°WNW
Pressure: 30.13"   Gusts: NA
Location:  40.2988°N, 76.709°W
Report Text: KMDT 280456Z 30014KT 10SM SCT050 BKN090 01/M04 A3013 RMK AO2 SLP206 T00111039 400330000
Loading
Personal Weather Stations






























Interactive Weather Map New forecast layout! Learn more

10-Day Weather Forecast

Advertisements
Track Severe Weather on mobile